Time;durP1;ratioP1;P1;durP2;ratioP2;P2;SDS_P1;SDS_P2;PMS_P1;PMS_P2;Temp;Humidity;BMP_temperature;BMP_pressure;BME280_temperature;BME280_humidity;BME280_pressure;Samples;Min_cycle;Max_cycle;Signal;HPM_P1;HPM_P2
2022/04/27 00:00:04;;;;;;;11.37;7.77;;;;;;;;;;4983670;28;20215;-57
2022/04/27 00:02:31;;;;;;;9.03;7.47;;;;;;;;;;4973758;28;20317;-57
2022/04/27 00:04:57;;;;;;;11.20;8.53;;;;;;;;;;4966045;28;20205;-56
2022/04/27 00:07:23;;;;;;;11.70;7.73;;;;;;;;;;4967000;28;20686;-57
2022/04/27 00:09:49;;;;;;;11.03;7.77;;;;;;;;;;4977879;28;20197;-56
2022/04/27 00:12:15;;;;;;;10.77;7.30;;;;;;;;;;4982038;28;20293;-57
2022/04/27 00:14:41;;;;;;;10.03;7.10;;;;;;;;;;4985055;28;20194;-56
2022/04/27 00:17:07;;;;;;;9.00;6.67;;;;;;;;;;4983696;28;20194;-57
2022/04/27 00:19:33;;;;;;;10.13;7.03;;;;;;;;;;4982792;28;20193;-56
2022/04/27 00:21:59;;;;;;;7.93;7.13;;;;;;;;;;4983536;28;20220;-57
2022/04/27 00:24:25;;;;;;;8.60;7.10;;;;;;;;;;4985898;28;20214;-57
2022/04/27 00:26:51;;;;;;;12.63;7.33;;;;;;;;;;4984915;28;20190;-57
2022/04/27 00:29:17;;;;;;;7.70;6.90;;;;;;;;;;4989197;28;20196;-58
2022/04/27 00:31:43;;;;;;;11.43;7.00;;;;;;;;;;4991115;28;20187;-57
2022/04/27 00:34:09;;;;;;;7.83;6.90;;;;;;;;;;4972390;28;20259;-57
2022/04/27 00:36:35;;;;;;;10.30;7.00;;;;;;;;;;4986470;28;20769;-57
2022/04/27 00:39:01;;;;;;;10.77;7.30;;;;;;;;;;4978431;28;20204;-57
2022/04/27 00:41:27;;;;;;;8.17;6.90;;;;;;;;;;4975035;28;20869;-57
2022/04/27 00:43:54;;;;;;;9.30;6.67;;;;;;;;;;4976870;28;20256;-58
2022/04/27 00:46:20;;;;;;;8.13;6.73;;;;;;;;;;4978508;28;20709;-57
2022/04/27 00:48:46;;;;;;;9.93;6.83;;;;;;;;;;4978600;28;20210;-57
2022/04/27 00:51:14;;;;;;;7.50;6.80;;;;;;;;;;4981801;28;20182;-57
2022/04/27 00:53:43;;;;;;;9.70;7.23;;;;;;;;;;4986161;28;20182;-57
2022/04/27 00:56:10;;;;;;;8.37;7.57;;;;;;;;;;4978604;28;20197;-57
2022/04/27 00:58:35;;;;;;;7.80;7.00;;;;;;;;;;4985613;28;20194;-57
2022/04/27 01:01:01;;;;;;;8.83;7.40;;;;;;;;;;4990179;28;20189;-57
2022/04/27 01:03:27;;;;;;;9.20;7.60;;;;;;;;;;4987813;28;20214;-56
2022/04/27 01:05:53;;;;;;;9.47;7.00;;;;;;;;;;4986906;28;20263;-57
2022/04/27 01:08:23;;;;;;;8.33;7.30;;;;;;;;;;4988777;28;20325;-57
2022/04/27 01:10:49;;;;;;;9.63;7.30;;;;;;;;;;4991697;28;20861;-57
2022/04/27 01:13:15;;;;;;;9.97;7.47;;;;;;;;;;4987757;28;20202;-57
2022/04/27 01:15:41;;;;;;;11.07;7.50;;;;;;;;;;4986027;28;20182;-57
2022/04/27 01:18:09;;;;;;;8.63;7.70;;;;;;;;;;4983689;28;20201;-57
2022/04/27 01:20:38;;;;;;;8.20;7.20;;;;;;;;;;4990082;28;20194;-57
2022/04/27 01:23:05;;;;;;;8.97;8.07;;;;;;;;;;4988528;28;20309;-57
2022/04/27 01:25:48;;;;;;;9.10;7.60;;;;;;;;;;4985005;28;20190;-57
2022/04/27 01:28:15;;;;;;;8.57;7.53;;;;;;;;;;4975540;28;20601;-57
2022/04/27 01:30:42;;;;;;;8.67;7.77;;;;;;;;;;4981079;28;20193;-57
2022/04/27 01:33:08;;;;;;;9.87;8.10;;;;;;;;;;4985295;28;20198;-57
2022/04/27 01:35:34;;;;;;;8.57;7.67;;;;;;;;;;4985385;28;20895;-57
2022/04/27 01:38:00;;;;;;;9.67;7.37;;;;;;;;;;4982262;28;20321;-57
2022/04/27 01:40:26;;;;;;;9.50;7.50;;;;;;;;;;4982691;28;20632;-57
2022/04/27 01:42:52;;;;;;;10.53;7.20;;;;;;;;;;4985803;28;20580;-57
2022/04/27 01:45:18;;;;;;;10.37;8.00;;;;;;;;;;4984259;28;20688;-57
2022/04/27 01:47:44;;;;;;;11.80;8.20;;;;;;;;;;4988162;28;20181;-57
2022/04/27 01:50:10;;;;;;;9.50;7.83;;;;;;;;;;4988540;28;20643;-56
2022/04/27 01:55:20;;;;;;;8.77;7.67;;;;;;;;;;4984736;28;20393;-57
2022/04/27 01:57:48;;;;;;;11.20;8.10;;;;;;;;;;4985284;28;20663;-56
2022/04/27 02:00:14;;;;;;;8.70;7.73;;;;;;;;;;4988547;28;20304;-57
2022/04/27 02:02:40;;;;;;;9.27;8.23;;;;;;;;;;4984882;28;20306;-57
2022/04/27 02:05:06;;;;;;;9.57;8.47;;;;;;;;;;4986263;28;20200;-56
2022/04/27 02:07:32;;;;;;;9.70;8.17;;;;;;;;;;4984781;28;20245;-56
2022/04/27 02:09:58;;;;;;;10.83;8.70;;;;;;;;;;4987930;28;20225;-56
2022/04/27 02:12:24;;;;;;;12.50;9.10;;;;;;;;;;4985760;28;20197;-57
2022/04/27 02:14:50;;;;;;;13.07;8.10;;;;;;;;;;4984989;28;20198;-56
2022/04/27 02:17:16;;;;;;;9.67;8.00;;;;;;;;;;4984547;28;20649;-57
2022/04/27 02:19:42;;;;;;;11.80;8.60;;;;;;;;;;4985058;28;20191;-57
2022/04/27 02:22:08;;;;;;;11.33;8.73;;;;;;;;;;4990237;28;20214;-57
2022/04/27 02:24:34;;;;;;;13.07;9.07;;;;;;;;;;4981466;28;20182;-57
2022/04/27 02:27:00;;;;;;;9.40;8.40;;;;;;;;;;4980050;28;20720;-57
2022/04/27 02:29:26;;;;;;;9.67;8.67;;;;;;;;;;4984201;28;20197;-57
2022/04/27 02:31:52;;;;;;;11.73;9.33;;;;;;;;;;4985944;28;20201;-57
2022/04/27 02:34:18;;;;;;;9.80;8.90;;;;;;;;;;4987053;28;20675;-57
2022/04/27 02:36:44;;;;;;;10.70;8.80;;;;;;;;;;4983128;28;20565;-57
2022/04/27 02:39:10;;;;;;;12.00;8.73;;;;;;;;;;4990727;28;20186;-57
2022/04/27 02:41:36;;;;;;;10.40;9.30;;;;;;;;;;4992941;28;20221;-57
2022/04/27 02:44:02;;;;;;;11.13;8.30;;;;;;;;;;4988243;28;20200;-57
2022/04/27 02:46:27;;;;;;;11.07;9.13;;;;;;;;;;4989706;28;20183;-57
2022/04/27 02:51:53;;;;;;;9.93;8.93;;;;;;;;;;4992011;28;20273;-56
2022/04/27 02:54:20;;;;;;;10.27;9.17;;;;;;;;;;4988410;28;20647;-57
2022/04/27 02:56:46;;;;;;;11.10;9.17;;;;;;;;;;4994668;28;20190;-56
2022/04/27 02:59:12;;;;;;;11.13;9.67;;;;;;;;;;4990939;28;20702;-56
2022/04/27 03:01:41;;;;;;;13.37;9.60;;;;;;;;;;4985793;28;20197;-57
2022/04/27 03:04:07;;;;;;;10.53;8.93;;;;;;;;;;4987362;28;20236;-57
2022/04/27 03:06:33;;;;;;;12.67;9.20;;;;;;;;;;4986732;28;20223;-57
2022/04/27 03:08:59;;;;;;;11.23;9.20;;;;;;;;;;4989948;28;20201;-57
2022/04/27 03:11:25;;;;;;;11.53;9.53;;;;;;;;;;4991672;28;20323;-57
2022/04/27 03:13:51;;;;;;;13.60;9.23;;;;;;;;;;4989312;28;20336;-56
2022/04/27 03:16:17;;;;;;;10.27;8.93;;;;;;;;;;4986509;28;20491;-56
2022/04/27 03:18:43;;;;;;;10.83;9.13;;;;;;;;;;4992475;28;20784;-56
2022/04/27 03:21:12;;;;;;;11.97;9.10;;;;;;;;;;4991155;28;20221;-55
2022/04/27 03:23:38;;;;;;;14.07;9.20;;;;;;;;;;4993517;28;20285;-57
2022/04/27 03:26:04;;;;;;;12.60;9.70;;;;;;;;;;4991541;28;20190;-57
2022/04/27 03:28:30;;;;;;;12.93;10.23;;;;;;;;;;4992398;28;20192;-57
2022/04/27 03:30:56;;;;;;;13.53;9.97;;;;;;;;;;4992928;28;20190;-57
2022/04/27 03:33:22;;;;;;;11.13;9.83;;;;;;;;;;4989336;28;20193;-56
2022/04/27 03:35:48;;;;;;;16.60;10.30;;;;;;;;;;4992592;28;20268;-56
2022/04/27 03:38:15;;;;;;;11.83;10.27;;;;;;;;;;4982902;28;20193;-57
2022/04/27 03:40:46;;;;;;;12.30;9.87;;;;;;;;;;4995206;28;20274;-56
2022/04/27 03:43:12;;;;;;;13.63;10.00;;;;;;;;;;4984685;28;20677;-57
2022/04/27 03:45:38;;;;;;;14.17;10.10;;;;;;;;;;4982749;28;20297;-56
2022/04/27 03:48:04;;;;;;;13.87;10.67;;;;;;;;;;4983827;28;20182;-57
2022/04/27 03:50:30;;;;;;;12.03;10.00;;;;;;;;;;4987085;28;20225;-57
2022/04/27 03:52:57;;;;;;;14.53;11.17;;;;;;;;;;4982912;28;20333;-56
2022/04/27 03:55:23;;;;;;;16.03;10.87;;;;;;;;;;4990510;28;20664;-56
2022/04/27 03:57:49;;;;;;;13.80;10.27;;;;;;;;;;4985742;28;20302;-56
2022/04/27 04:00:15;;;;;;;12.40;10.83;;;;;;;;;;4988706;28;20260;-56
2022/04/27 04:02:41;;;;;;;14.53;11.23;;;;;;;;;;4982649;28;20217;-56
2022/04/27 04:05:07;;;;;;;15.07;10.70;;;;;;;;;;4986829;28;20188;-56
2022/04/27 04:07:34;;;;;;;15.97;10.90;;;;;;;;;;4982365;28;20241;-56
2022/04/27 04:10:00;;;;;;;12.20;11.00;;;;;;;;;;4990469;28;20198;-57
2022/04/27 04:12:26;;;;;;;15.53;11.40;;;;;;;;;;4985779;28;20251;-56
2022/04/27 04:14:52;;;;;;;13.10;11.53;;;;;;;;;;4991109;28;20194;-56
2022/04/27 04:17:18;;;;;;;13.10;11.00;;;;;;;;;;4979435;28;20193;-55
2022/04/27 04:19:44;;;;;;;13.63;11.60;;;;;;;;;;4991385;28;20528;-57
2022/04/27 04:22:10;;;;;;;13.50;10.70;;;;;;;;;;4979687;28;20218;-57
2022/04/27 04:24:36;;;;;;;12.67;11.17;;;;;;;;;;4987180;28;20182;-56
2022/04/27 04:30:01;;;;;;;15.07;11.17;;;;;;;;;;4971391;28;20611;-57
2022/04/27 04:32:27;;;;;;;13.80;11.27;;;;;;;;;;4987319;28;20185;-54
2022/04/27 04:34:53;;;;;;;15.87;12.20;;;;;;;;;;4981998;28;20185;-56
2022/04/27 04:37:19;;;;;;;13.20;11.73;;;;;;;;;;4978293;28;20402;-54
2022/04/27 04:39:49;;;;;;;16.17;12.60;;;;;;;;;;4966248;28;20320;-57
2022/04/27 04:42:15;;;;;;;15.37;11.70;;;;;;;;;;4967030;28;20224;-56
2022/04/27 04:44:41;;;;;;;20.90;12.67;;;;;;;;;;4976786;28;20189;-56
2022/04/27 04:47:07;;;;;;;15.87;11.40;;;;;;;;;;4977082;28;20187;-56
2022/04/27 04:49:32;;;;;;;15.10;11.77;;;;;;;;;;4984283;28;20202;-56
2022/04/27 04:51:58;;;;;;;14.67;11.57;;;;;;;;;;4976651;28;20620;-57
2022/04/27 04:54:25;;;;;;;17.90;12.70;;;;;;;;;;4978292;28;20202;-56
2022/04/27 04:56:51;;;;;;;13.27;11.77;;;;;;;;;;4968241;28;20205;-56
2022/04/27 04:59:17;;;;;;;12.67;11.23;;;;;;;;;;4979872;28;20221;-56
2022/04/27 05:01:42;;;;;;;15.10;12.27;;;;;;;;;;4970281;28;20710;-56
2022/04/27 05:04:09;;;;;;;12.93;11.40;;;;;;;;;;4976309;28;20680;-56
2022/04/27 05:06:35;;;;;;;14.13;12.07;;;;;;;;;;4963529;28;20209;-56
2022/04/27 05:09:01;;;;;;;16.67;11.77;;;;;;;;;;4971054;28;20233;-56
2022/04/27 05:11:27;;;;;;;15.93;12.77;;;;;;;;;;4978125;28;20200;-56
2022/04/27 05:13:53;;;;;;;15.33;11.07;;;;;;;;;;4984731;28;20194;-56
2022/04/27 05:16:19;;;;;;;14.73;11.73;;;;;;;;;;4979022;28;20568;-57
2022/04/27 05:18:45;;;;;;;14.17;11.03;;;;;;;;;;4970349;28;20765;-57
2022/04/27 05:21:11;;;;;;;14.87;11.63;;;;;;;;;;4980738;28;20190;-56
2022/04/27 05:23:37;;;;;;;15.00;11.47;;;;;;;;;;4979277;28;20210;-56
2022/04/27 05:26:03;;;;;;;13.50;11.43;;;;;;;;;;4984130;28;20193;-56
2022/04/27 05:31:53;;;;;;;15.00;11.20;;;;;;;;;;4993755;28;20186;-56
2022/04/27 05:33:59;;;;;;;13.63;11.40;;;;;;;;;;4984205;28;20259;-57
2022/04/27 05:36:25;;;;;;;13.73;11.63;;;;;;;;;;4990022;28;20651;-56
2022/04/27 05:38:51;;;;;;;13.20;11.20;;;;;;;;;;4990448;28;20190;-57
2022/04/27 05:41:17;;;;;;;15.83;11.13;;;;;;;;;;4989295;28;20637;-56
2022/04/27 05:43:43;;;;;;;12.57;10.27;;;;;;;;;;4988734;28;20681;-56
2022/04/27 05:46:09;;;;;;;11.60;10.40;;;;;;;;;;4990844;28;20635;-57
2022/04/27 05:48:35;;;;;;;14.33;11.20;;;;;;;;;;4991024;28;20190;-56
2022/04/27 05:51:03;;;;;;;14.93;10.63;;;;;;;;;;4989962;28;20200;-56
2022/04/27 05:53:28;;;;;;;14.40;11.03;;;;;;;;;;4993222;28;20260;-56
2022/04/27 05:55:54;;;;;;;14.23;11.20;;;;;;;;;;4989166;28;20303;-57
2022/04/27 05:58:20;;;;;;;12.80;10.07;;;;;;;;;;4988225;28;20192;-56
2022/04/27 06:00:46;;;;;;;12.43;10.50;;;;;;;;;;4987400;28;20201;-56
2022/04/27 06:03:12;;;;;;;13.13;10.07;;;;;;;;;;4989843;28;20206;-56
2022/04/27 06:05:38;;;;;;;15.87;10.60;;;;;;;;;;4981901;28;20177;-56
2022/04/27 06:08:06;;;;;;;15.73;10.03;;;;;;;;;;4987825;28;20233;-56
2022/04/27 06:10:32;;;;;;;11.47;10.20;;;;;;;;;;4983473;28;20198;-57
2022/04/27 06:12:58;;;;;;;13.90;11.27;;;;;;;;;;4998766;28;20943;-57
2022/04/27 06:15:24;;;;;;;12.27;10.57;;;;;;;;;;4989864;28;20710;-57
2022/04/27 06:17:50;;;;;;;15.83;10.30;;;;;;;;;;4991108;28;20270;-57
2022/04/27 06:20:16;;;;;;;12.30;10.63;;;;;;;;;;4989874;28;20190;-57
2022/04/27 06:22:42;;;;;;;13.53;10.60;;;;;;;;;;4991384;28;20249;-57
2022/04/27 06:25:08;;;;;;;12.00;10.33;;;;;;;;;;4991981;28;20272;-57
2022/04/27 06:27:34;;;;;;;11.87;10.27;;;;;;;;;;4992612;28;20190;-57
2022/04/27 06:30:01;;;;;;;13.37;10.40;;;;;;;;;;4992317;28;20564;-57
2022/04/27 06:32:29;;;;;;;13.13;10.97;;;;;;;;;;4994016;28;20675;-57
2022/04/27 06:34:55;;;;;;;11.17;10.00;;;;;;;;;;4994846;28;20198;-57
2022/04/27 06:37:21;;;;;;;11.57;10.30;;;;;;;;;;4993168;28;20190;-56
2022/04/27 06:39:47;;;;;;;11.23;9.60;;;;;;;;;;4993812;28;20665;-57
2022/04/27 06:42:13;;;;;;;11.40;9.87;;;;;;;;;;4989513;28;21321;-57
2022/04/27 06:44:39;;;;;;;12.27;9.77;;;;;;;;;;4989428;28;20233;-57
2022/04/27 06:47:05;;;;;;;11.27;10.13;;;;;;;;;;4989547;28;20197;-57
2022/04/27 06:49:31;;;;;;;11.67;10.07;;;;;;;;;;4990521;28;20233;-57
2022/04/27 06:51:57;;;;;;;11.47;9.80;;;;;;;;;;4994200;28;20202;-57
2022/04/27 06:54:23;;;;;;;14.73;9.73;;;;;;;;;;4991238;28;20182;-56
2022/04/27 06:56:49;;;;;;;10.03;8.90;;;;;;;;;;4989728;28;20224;-57
2022/04/27 06:59:15;;;;;;;11.03;9.30;;;;;;;;;;4994843;28;20201;-57
2022/04/27 07:01:41;;;;;;;9.60;8.70;;;;;;;;;;4994484;28;20209;-57
2022/04/27 07:04:09;;;;;;;10.30;9.30;;;;;;;;;;4990215;28;21191;-57
2022/04/27 07:06:35;;;;;;;11.00;9.17;;;;;;;;;;4994725;28;20220;-57
2022/04/27 07:09:01;;;;;;;10.37;9.07;;;;;;;;;;4986200;28;20210;-57
2022/04/27 07:11:27;;;;;;;10.77;9.00;;;;;;;;;;4991867;28;20613;-57
2022/04/27 07:13:54;;;;;;;9.47;8.20;;;;;;;;;;4993210;28;20194;-57
2022/04/27 07:16:20;;;;;;;8.40;7.50;;;;;;;;;;4996692;28;20655;-57
2022/04/27 07:18:46;;;;;;;7.87;7.07;;;;;;;;;;4995062;28;20236;-57
2022/04/27 07:21:12;;;;;;;10.23;7.43;;;;;;;;;;4993461;28;20186;-57
2022/04/27 07:23:38;;;;;;;10.07;7.57;;;;;;;;;;4993848;28;20218;-56
2022/04/27 07:26:07;;;;;;;7.77;6.40;;;;;;;;;;4996495;28;20221;-56
2022/04/27 07:28:33;;;;;;;8.90;6.83;;;;;;;;;;4997297;28;20258;-57
2022/04/27 07:30:59;;;;;;;10.50;6.50;;;;;;;;;;4994037;28;20653;-57
2022/04/27 07:33:25;;;;;;;7.60;6.50;;;;;;;;;;4992803;28;20189;-57
2022/04/27 07:35:51;;;;;;;10.33;6.30;;;;;;;;;;4997251;28;20578;-58
2022/04/27 07:38:17;;;;;;;7.13;6.30;;;;;;;;;;4989097;28;20201;-57
2022/04/27 07:40:42;;;;;;;6.77;6.17;;;;;;;;;;4992900;28;20194;-57
2022/04/27 07:43:08;;;;;;;8.53;6.67;;;;;;;;;;4996889;28;20224;-56
2022/04/27 07:45:34;;;;;;;7.07;5.60;;;;;;;;;;4992140;28;20721;-57
2022/04/27 07:48:00;;;;;;;6.77;5.40;;;;;;;;;;4996702;28;20194;-57
2022/04/27 07:50:26;;;;;;;9.60;6.10;;;;;;;;;;4995615;28;20182;-56
2022/04/27 07:52:56;;;;;;;8.83;5.93;;;;;;;;;;4993787;28;20182;-57
2022/04/27 07:55:22;;;;;;;7.90;6.20;;;;;;;;;;4994004;28;20563;-57
2022/04/27 07:57:48;;;;;;;8.30;5.90;;;;;;;;;;4992630;28;20194;-57
2022/04/27 08:00:14;;;;;;;7.13;5.23;;;;;;;;;;4992832;28;20308;-57
2022/04/27 08:02:41;;;;;;;7.20;5.23;;;;;;;;;;4985473;28;20260;-57
2022/04/27 08:05:07;;;;;;;7.70;5.50;;;;;;;;;;4984692;28;20287;-57
2022/04/27 08:07:40;;;;;;;6.73;5.60;;;;;;;;;;4996343;28;20702;-57
2022/04/27 08:10:10;;;;;;;5.50;4.90;;;;;;;;;;4994508;28;20293;-57
2022/04/27 08:12:36;;;;;;;6.43;5.50;;;;;;;;;;4994783;28;20199;-57
2022/04/27 08:15:01;;;;;;;6.67;5.00;;;;;;;;;;4993539;28;20596;-57
2022/04/27 08:17:27;;;;;;;6.10;5.50;;;;;;;;;;4996605;28;20197;-57
2022/04/27 08:21:13;;;;;;;6.70;5.17;;;;;;;;;;4993737;28;20190;-57
2022/04/27 08:22:39;;;;;;;9.80;6.00;;;;;;;;;;4991608;28;20218;-56
2022/04/27 08:25:05;;;;;;;6.77;5.00;;;;;;;;;;4994411;28;20195;-56
2022/04/27 08:27:32;;;;;;;7.90;5.03;;;;;;;;;;4993811;28;20197;-57
2022/04/27 08:29:58;;;;;;;8.07;5.05;;;;;;;;;;4994841;28;20186;-56
2022/04/27 08:32:24;;;;;;;6.60;5.15;;;;;;;;;;4993975;28;20198;-56
2022/04/27 08:34:50;;;;;;;6.18;5.30;;;;;;;;;;4991156;28;20198;-56
2022/04/27 08:37:16;;;;;;;7.50;4.60;;;;;;;;;;4996042;28;20297;-56
2022/04/27 08:39:42;;;;;;;6.97;5.07;;;;;;;;;;4994616;28;20312;-56
2022/04/27 08:42:09;;;;;;;5.13;4.63;;;;;;;;;;4993375;28;20252;-57
2022/04/27 08:44:35;;;;;;;5.88;4.72;;;;;;;;;;4987834;28;20253;-56
2022/04/27 08:47:02;;;;;;;8.25;5.15;;;;;;;;;;4988394;28;20213;-56
2022/04/27 08:49:29;;;;;;;8.07;5.10;;;;;;;;;;4985838;28;20181;-57
2022/04/27 08:51:56;;;;;;;5.43;4.50;;;;;;;;;;4990821;28;20289;-57
2022/04/27 08:54:23;;;;;;;6.55;5.13;;;;;;;;;;4993211;28;20197;-57
2022/04/27 08:56:51;;;;;;;9.10;4.55;;;;;;;;;;4991823;28;20646;-57
2022/04/27 08:59:17;;;;;;;8.27;5.28;;;;;;;;;;4992449;28;20186;-57
2022/04/27 09:01:43;;;;;;;8.18;5.45;;;;;;;;;;4992579;28;20244;-56
2022/04/27 09:04:13;;;;;;;7.07;4.97;;;;;;;;;;4986682;28;20244;-56
2022/04/27 09:06:39;;;;;;;5.72;4.60;;;;;;;;;;4993523;28;20217;-56
2022/04/27 09:09:10;;;;;;;7.65;4.70;;;;;;;;;;4991529;28;20190;-56
2022/04/27 09:11:37;;;;;;;7.88;4.97;;;;;;;;;;4993878;28;20236;-57
2022/04/27 09:14:03;;;;;;;9.93;5.60;;;;;;;;;;4995960;28;20748;-57
2022/04/27 09:22:10;;;;;;;6.90;4.75;;;;;;;;;;4991397;28;20319;-57
2022/04/27 09:24:50;;;;;;;6.65;4.88;;;;;;;;;;4992807;28;20356;-57
2022/04/27 09:27:19;;;;;;;6.00;5.20;;;;;;;;;;4991704;28;20604;-56
2022/04/27 09:30:07;;;;;;;6.50;4.10;;;;;;;;;;4993470;28;20570;-57
2022/04/27 09:32:34;;;;;;;4.93;4.32;;;;;;;;;;4997033;28;20181;-57
2022/04/27 09:35:02;;;;;;;7.68;3.92;;;;;;;;;;4989366;28;20553;-57
2022/04/27 09:37:30;;;;;;;5.50;4.10;;;;;;;;;;4992701;28;20182;-56
2022/04/27 09:40:06;;;;;;;5.97;3.70;;;;;;;;;;4992276;28;20659;-56
2022/04/27 09:42:36;;;;;;;5.28;4.47;;;;;;;;;;4993837;28;20204;-56
2022/04/27 09:45:17;;;;;;;4.80;4.32;;;;;;;;;;4993527;28;20211;-56
2022/04/27 09:48:01;;;;;;;5.88;4.25;;;;;;;;;;4988678;28;20190;-56
2022/04/27 09:50:27;;;;;;;6.45;3.83;;;;;;;;;;4994156;28;20204;-57
2022/04/27 09:52:53;;;;;;;5.32;4.03;;;;;;;;;;4993909;28;20656;-56
2022/04/27 09:55:19;;;;;;;7.88;4.63;;;;;;;;;;4991279;28;20196;-56
2022/04/27 09:57:45;;;;;;;8.02;4.20;;;;;;;;;;4988612;28;20189;-57
2022/04/27 10:00:12;;;;;;;4.43;3.78;;;;;;;;;;4988389;28;21805;-57
2022/04/27 10:02:43;;;;;;;4.50;3.55;;;;;;;;;;4993278;28;20229;-57
2022/04/27 10:05:09;;;;;;;5.60;4.05;;;;;;;;;;4991983;28;20217;-56
2022/04/27 10:07:35;;;;;;;4.93;4.13;;;;;;;;;;4990649;28;20332;-57
2022/04/27 10:10:01;;;;;;;4.70;3.97;;;;;;;;;;4992469;28;20189;-57
2022/04/27 10:12:27;;;;;;;3.65;3.35;;;;;;;;;;4994331;28;20220;-57
2022/04/27 10:14:53;;;;;;;4.78;3.20;;;;;;;;;;4994398;28;20201;-57
2022/04/27 10:17:19;;;;;;;5.90;3.50;;;;;;;;;;4991826;28;20200;-57
2022/04/27 10:19:46;;;;;;;3.58;3.15;;;;;;;;;;4991104;28;20178;-57
2022/04/27 10:22:45;;;;;;;5.97;4.32;;;;;;;;;;4990867;28;20221;-56
2022/04/27 10:25:11;;;;;;;4.78;3.45;;;;;;;;;;4973577;28;20201;-57
2022/04/27 10:27:38;;;;;;;4.97;3.60;;;;;;;;;;4990719;28;20198;-56
2022/04/27 10:30:11;;;;;;;4.97;3.85;;;;;;;;;;4990118;28;20177;-57
2022/04/27 10:32:38;;;;;;;3.88;3.15;;;;;;;;;;4991809;28;20178;-57
2022/04/27 10:35:14;;;;;;;5.15;3.58;;;;;;;;;;4995176;28;20671;-57
2022/04/27 10:37:54;;;;;;;5.57;3.53;;;;;;;;;;4987113;28;20290;-56
2022/04/27 10:40:35;;;;;;;4.68;3.22;;;;;;;;;;4989770;28;20193;-57
2022/04/27 10:43:01;;;;;;;5.07;3.05;;;;;;;;;;4991404;28;20202;-57
2022/04/27 10:45:27;;;;;;;4.30;3.45;;;;;;;;;;4995488;28;20237;-57
2022/04/27 10:47:53;;;;;;;5.57;3.72;;;;;;;;;;4989653;28;20178;-57
2022/04/27 10:50:20;;;;;;;3.97;3.10;;;;;;;;;;4992294;28;20594;-57
2022/04/27 10:52:55;;;;;;;5.65;3.30;;;;;;;;;;4994350;28;20232;-57
2022/04/27 10:55:40;;;;;;;5.28;3.47;;;;;;;;;;4991413;28;20253;-57
2022/04/27 10:58:18;;;;;;;3.85;2.85;;;;;;;;;;4994979;28;20668;-57
2022/04/27 11:01:02;;;;;;;7.38;3.75;;;;;;;;;;4997137;28;20643;-57
2022/04/27 11:03:35;;;;;;;4.15;3.60;;;;;;;;;;4991851;28;20236;-57
2022/04/27 11:06:21;;;;;;;3.75;3.40;;;;;;;;;;4994271;28;20242;-57
2022/04/27 11:09:00;;;;;;;3.50;3.20;;;;;;;;;;4992963;28;20574;-56
2022/04/27 11:11:27;;;;;;;4.47;3.40;;;;;;;;;;4995053;28;20178;-57
2022/04/27 11:14:00;;;;;;;4.38;3.67;;;;;;;;;;4996775;28;20212;-57
2022/04/27 11:16:26;;;;;;;4.90;3.60;;;;;;;;;;4994882;28;20343;-56
2022/04/27 11:18:55;;;;;;;4.85;3.28;;;;;;;;;;4998014;28;20232;-57
2022/04/27 11:21:21;;;;;;;8.88;3.58;;;;;;;;;;4993374;28;20209;-57
2022/04/27 11:23:47;;;;;;;4.50;3.13;;;;;;;;;;4997691;28;20221;-57
2022/04/27 11:26:16;;;;;;;6.13;3.30;;;;;;;;;;4995890;28;20646;-57
2022/04/27 11:28:45;;;;;;;4.50;3.65;;;;;;;;;;4993135;28;20174;-57
2022/04/27 11:31:11;;;;;;;5.20;3.72;;;;;;;;;;4994870;28;20191;-57
2022/04/27 11:33:40;;;;;;;7.93;4.40;;;;;;;;;;4991845;28;20757;-57
2022/04/27 11:36:22;;;;;;;4.40;3.22;;;;;;;;;;4995979;28;21525;-57
2022/04/27 11:38:48;;;;;;;4.80;3.38;;;;;;;;;;4991581;28;20179;-57
2022/04/27 11:41:14;;;;;;;4.40;3.65;;;;;;;;;;4994002;28;20200;-57
2022/04/27 11:43:40;;;;;;;4.70;4.00;;;;;;;;;;4991637;28;20205;-57
2022/04/27 11:46:10;;;;;;;5.95;3.45;;;;;;;;;;4995290;28;20243;-57
2022/04/27 11:48:36;;;;;;;3.97;3.58;;;;;;;;;;4991901;28;20210;-57
2022/04/27 11:51:02;;;;;;;4.57;3.90;;;;;;;;;;4997218;28;20728;-57
2022/04/27 11:53:28;;;;;;;5.50;3.40;;;;;;;;;;4995529;28;20907;-57
2022/04/27 11:55:54;;;;;;;4.10;3.70;;;;;;;;;;4994914;28;20198;-57
2022/04/27 11:58:24;;;;;;;4.03;3.63;;;;;;;;;;4996246;28;20200;-56
2022/04/27 12:00:53;;;;;;;3.92;3.10;;;;;;;;;;4991243;28;20269;-57
2022/04/27 12:03:19;;;;;;;3.90;3.15;;;;;;;;;;4994134;28;20950;-57
2022/04/27 12:05:46;;;;;;;4.10;3.70;;;;;;;;;;4993509;28;20190;-57
2022/04/27 12:08:18;;;;;;;3.88;3.45;;;;;;;;;;4991789;28;20344;-57
2022/04/27 12:10:44;;;;;;;4.90;3.25;;;;;;;;;;4988171;28;20652;-57
2022/04/27 12:13:10;;;;;;;5.35;3.47;;;;;;;;;;4994664;28;20584;-57
2022/04/27 12:15:36;;;;;;;3.90;3.60;;;;;;;;;;4994213;28;20252;-57
2022/04/27 12:18:03;;;;;;;4.32;3.60;;;;;;;;;;4993771;28;20182;-57
2022/04/27 12:20:36;;;;;;;5.30;4.63;;;;;;;;;;4993784;28;20186;-57
2022/04/27 12:23:05;;;;;;;4.75;3.53;;;;;;;;;;4992573;28;20829;-57
2022/04/27 12:25:55;;;;;;;8.77;3.65;;;;;;;;;;4987823;28;20775;-56
2022/04/27 12:28:22;;;;;;;4.10;3.40;;;;;;;;;;4983849;28;20203;-57
2022/04/27 12:30:49;;;;;;;3.92;3.35;;;;;;;;;;4992054;28;20225;-57
2022/04/27 12:33:19;;;;;;;3.88;3.45;;;;;;;;;;4994425;28;20372;-57
2022/04/27 12:38:31;;;;;;;4.13;2.85;;;;;;;;;;4994757;28;20228;-57
2022/04/27 12:40:58;;;;;;;8.27;7.47;;;;;;;;;;4986926;28;20187;-56
2022/04/27 12:43:24;;;;;;;8.63;6.97;;;;;;;;;;4984331;28;20220;-56
2022/04/27 12:46:05;;;;;;;11.02;7.65;;;;;;;;;;4991552;28;20186;-56
2022/04/27 12:48:31;;;;;;;7.93;7.07;;;;;;;;;;4987959;28;20205;-56
2022/04/27 12:51:01;;;;;;;8.05;7.35;;;;;;;;;;4979390;28;20190;-56
2022/04/27 12:53:27;;;;;;;10.40;7.22;;;;;;;;;;4989408;28;20206;-56
2022/04/27 12:56:02;;;;;;;9.02;8.13;;;;;;;;;;4987760;28;20292;-56
2022/04/27 12:58:29;;;;;;;10.60;8.40;;;;;;;;;;4987873;28;20224;-56
2022/04/27 13:00:55;;;;;;;10.93;6.80;;;;;;;;;;4986181;28;20210;-56
2022/04/27 13:03:23;;;;;;;4.32;3.92;;;;;;;;;;4987265;28;20225;-56
2022/04/27 13:05:50;;;;;;;8.48;3.38;;;;;;;;;;4995218;28;20228;-56
2022/04/27 13:08:16;;;;;;;6.70;3.97;;;;;;;;;;4993490;28;20757;-56
2022/04/27 13:13:27;;;;;;;4.15;2.95;;;;;;;;;;4991119;28;20365;-56
2022/04/27 13:15:53;;;;;;;3.40;3.10;;;;;;;;;;4992395;28;20724;-57
2022/04/27 13:18:19;;;;;;;3.75;3.40;;;;;;;;;;4981510;28;20727;-57
2022/04/27 13:20:48;;;;;;;6.68;5.05;;;;;;;;;;4983618;28;20217;-56
2022/04/27 13:23:14;;;;;;;3.88;3.50;;;;;;;;;;4988568;28;20202;-56
2022/04/27 13:25:40;;;;;;;3.83;3.47;;;;;;;;;;4986842;28;20201;-55
2022/04/27 13:28:06;;;;;;;4.65;3.55;;;;;;;;;;4988899;28;20623;-56
2022/04/27 13:30:32;;;;;;;4.07;3.20;;;;;;;;;;4982098;28;20197;-56
2022/04/27 13:32:59;;;;;;;5.32;4.25;;;;;;;;;;4988213;28;20210;-56
2022/04/27 13:35:25;;;;;;;5.68;4.15;;;;;;;;;;4989411;28;20612;-55
2022/04/27 13:37:51;;;;;;;4.50;3.90;;;;;;;;;;4991322;28;20247;-56
2022/04/27 13:40:17;;;;;;;4.57;4.18;;;;;;;;;;4990367;28;20182;-56
2022/04/27 13:42:43;;;;;;;5.15;4.07;;;;;;;;;;4990661;28;20247;-56
2022/04/27 13:45:10;;;;;;;4.78;3.33;;;;;;;;;;4974932;28;20703;-56
2022/04/27 13:47:36;;;;;;;4.60;3.92;;;;;;;;;;4965766;28;20658;-56
2022/04/27 13:50:02;;;;;;;4.78;4.20;;;;;;;;;;4974067;28;20233;-56
2022/04/27 13:52:29;;;;;;;4.05;3.65;;;;;;;;;;4975158;28;20215;-56
2022/04/27 13:54:55;;;;;;;5.93;4.10;;;;;;;;;;4970843;28;20186;-56
2022/04/27 13:57:21;;;;;;;7.88;4.20;;;;;;;;;;4962654;28;20186;-56
2022/04/27 13:59:47;;;;;;;6.07;4.35;;;;;;;;;;4969664;28;20191;-56
2022/04/27 14:02:13;;;;;;;5.15;3.92;;;;;;;;;;4968003;28;20190;-55
2022/04/27 14:04:40;;;;;;;4.25;3.85;;;;;;;;;;4959989;28;20246;-56
2022/04/27 14:07:07;;;;;;;8.68;7.60;;;;;;;;;;4953569;28;20253;-57
2022/04/27 14:09:32;;;;;;;10.20;8.70;;;;;;;;;;4965233;28;20194;-57
2022/04/27 14:14:43;;;;;;;10.48;9.00;;;;;;;;;;4956630;28;20185;-58
2022/04/27 14:19:54;;;;;;;9.90;8.90;;;;;;;;;;4959561;28;20253;-57
2022/04/27 14:22:21;;;;;;;9.68;8.77;;;;;;;;;;4967500;28;20195;-57
2022/04/27 14:24:47;;;;;;;11.55;9.68;;;;;;;;;;4964895;28;20183;-58
2022/04/27 14:27:15;;;;;;;9.15;8.25;;;;;;;;;;4973183;28;20190;-58
2022/04/27 14:29:41;;;;;;;9.75;8.75;;;;;;;;;;4968928;28;20193;-57
2022/04/27 14:32:07;;;;;;;11.93;8.77;;;;;;;;;;4968985;28;20182;-57
2022/04/27 14:34:33;;;;;;;11.60;8.68;;;;;;;;;;4970987;28;20194;-57
2022/04/27 14:36:59;;;;;;;10.63;8.75;;;;;;;;;;4973553;28;20753;-57
2022/04/27 14:39:25;;;;;;;11.57;8.65;;;;;;;;;;4972714;28;20543;-57
2022/04/27 14:41:51;;;;;;;10.60;9.10;;;;;;;;;;4972356;28;20221;-57
2022/04/27 14:44:20;;;;;;;11.23;9.10;;;;;;;;;;4971432;28;20210;-57
2022/04/27 14:46:45;;;;;;;10.20;8.27;;;;;;;;;;4971949;28;20191;-57
2022/04/27 14:49:11;;;;;;;9.55;8.35;;;;;;;;;;4971706;28;20675;-57
2022/04/27 14:51:38;;;;;;;8.45;7.65;;;;;;;;;;4974003;28;20655;-57
2022/04/27 14:54:04;;;;;;;12.70;8.60;;;;;;;;;;4970340;28;20630;-57
2022/04/27 14:56:30;;;;;;;11.45;9.30;;;;;;;;;;4975938;28;20210;-58
2022/04/27 14:58:56;;;;;;;11.57;8.65;;;;;;;;;;4971291;28;20273;-57
2022/04/27 15:01:22;;;;;;;11.18;8.82;;;;;;;;;;4959011;28;20186;-57